Time;durP1;ratioP1;P1;durP2;ratioP2;P2;SDS_P1;SDS_P2;PMS_P1;PMS_P2;Temp;Humidity;BMP_temperature;BMP_pressure;BME280_temperature;BME280_humidity;BME280_pressure;Samples;Min_cycle;Max_cycle;Signal;HPM_P1;HPM_P2
2023/09/21 00:01:41;;;;;;;;;;;17.90;99.90;;;;;;5134334;27;19907;-46
2023/09/21 00:04:07;;;;;;;;;;;17.90;99.90;;;;;;5133218;27;19908;-49
2023/09/21 00:06:33;;;;;;;;;;;17.80;99.90;;;;;;5134223;27;19998;-46
2023/09/21 00:08:59;;;;;;;;;;;17.80;99.90;;;;;;5134144;27;19939;-45
2023/09/21 00:11:24;;;;;;;;;;;17.80;99.90;;;;;;5133797;27;19911;-46
2023/09/21 00:13:50;;;;;;;;;;;17.80;99.90;;;;;;5133985;27;19919;-48
2023/09/21 00:16:18;;;;;;;;;;;17.80;99.90;;;;;;5115520;27;19955;-49
2023/09/21 00:18:44;;;;;;;;;;;17.80;99.90;;;;;;5134206;27;19907;-47
2023/09/21 00:21:12;;;;;;;;;;;17.80;99.90;;;;;;5134039;27;20265;-45
2023/09/21 00:23:38;;;;;;;;;;;17.80;99.90;;;;;;5133915;27;20422;-47
2023/09/21 00:26:04;;;;;;;;;;;17.70;99.90;;;;;;5134050;27;19911;-47
2023/09/21 00:28:30;;;;;;;;;;;17.70;99.90;;;;;;5133632;27;19915;-46
2023/09/21 00:30:59;;;;;;;;;;;17.70;99.90;;;;;;5133988;27;20367;-46
2023/09/21 00:33:27;;;;;;;;;;;17.80;99.90;;;;;;5133648;27;19923;-45
2023/09/21 00:35:53;;;;;;;;;;;17.80;99.90;;;;;;5133786;27;20006;-45
2023/09/21 00:38:19;;;;;;;;;;;17.80;99.90;;;;;;5133736;27;20405;-48
2023/09/21 00:40:45;;;;;;;;;;;17.80;99.90;;;;;;5133896;27;19999;-46
2023/09/21 00:43:21;;;;;;;;;;;17.80;99.90;;;;;;5133706;27;19972;-46
2023/09/21 00:45:50;;;;;;;;;;;17.90;99.90;;;;;;5133751;27;19998;-46
2023/09/21 00:48:21;;;;;;;;;;;17.80;99.90;;;;;;5133746;28;19908;-45
2023/09/21 00:50:48;;;;;;;;;;;17.90;99.90;;;;;;5133909;28;19907;-48
2023/09/21 00:53:15;;;;;;;;;;;17.90;99.90;;;;;;5133596;28;20311;-47
2023/09/21 00:55:42;;;;;;;;;;;17.90;99.90;;;;;;5133656;28;19922;-46
2023/09/21 00:58:08;;;;;;;;;;;17.80;99.90;;;;;;5133673;28;20270;-47
2023/09/21 01:00:34;;;;;;;;;;;17.80;99.90;;;;;;5133595;28;20927;-47
2023/09/21 01:03:07;;;;;;;;;;;17.80;99.90;;;;;;5133547;28;20014;-47
2023/09/21 01:05:36;;;;;;;;;;;17.80;99.90;;;;;;5133581;28;20377;-46
2023/09/21 01:08:04;;;;;;;;;;;17.80;99.90;;;;;;5133200;28;19954;-46
2023/09/21 01:10:30;;;;;;;;;;;17.80;99.90;;;;;;5133441;28;19907;-45
2023/09/21 01:12:55;;;;;;;;;;;17.80;99.90;;;;;;5133581;28;19952;-47
2023/09/21 01:15:21;;;;;;;;;;;17.80;99.90;;;;;;5134514;27;19984;-46
2023/09/21 01:17:46;;;;;;;;;;;17.80;99.90;;;;;;5138489;27;19950;-46
2023/09/21 01:22:52;;;;;;;;;;;17.80;99.90;;;;;;5137583;27;19907;-44
2023/09/21 01:25:17;;;;;;;;;;;17.80;99.90;;;;;;5137378;27;19907;-44
2023/09/21 01:27:43;;;;;;;;;;;17.90;99.90;;;;;;5137386;27;19961;-46
2023/09/21 01:30:11;;;;;;;;;;;17.80;99.90;;;;;;5137297;27;20397;-45
2023/09/21 01:32:40;;;;;;;;;;;17.80;99.90;;;;;;5137122;27;19919;-45
2023/09/21 01:35:07;;;;;;;;;;;17.80;99.90;;;;;;5136879;27;19920;-46
2023/09/21 01:37:32;;;;;;;;;;;17.80;99.90;;;;;;5137339;27;19908;-46
2023/09/21 01:39:58;;;;;;;;;;;17.80;99.90;;;;;;5137081;27;20388;-45
2023/09/21 01:42:25;;;;;;;;;;;17.80;99.90;;;;;;5156604;27;19918;-47
2023/09/21 01:44:51;;;;;;;;;;;17.90;99.90;;;;;;5157903;27;19922;-46
2023/09/21 01:47:20;;;;;;;;;;;17.90;99.90;;;;;;5157688;27;19911;-46
2023/09/21 01:49:46;;;;;;;;;;;17.90;99.90;;;;;;5157581;27;19914;-46
2023/09/21 01:52:11;;;;;;;;;;;17.80;99.90;;;;;;5157590;27;19937;-46
2023/09/21 01:54:38;;;;;;;;;;;17.90;99.90;;;;;;5157632;27;19919;-46
2023/09/21 01:57:08;;;;;;;;;;;17.90;99.90;;;;;;5157584;27;19960;-44
2023/09/21 01:59:33;;;;;;;;;;;17.90;99.90;;;;;;5157530;27;19914;-48
2023/09/21 02:01:59;;;;;;;;;;;17.90;99.90;;;;;;5157546;27;19914;-47
2023/09/21 02:04:24;;;;;;;;;;;17.90;99.90;;;;;;5157268;27;20325;-46
2023/09/21 02:06:50;;;;;;;;;;;17.90;99.90;;;;;;5157474;27;19907;-45
2023/09/21 02:09:15;;;;;;;;;;;18.00;99.90;;;;;;5157345;27;19958;-48
2023/09/21 02:11:41;;;;;;;;;;;18.00;99.90;;;;;;5145939;27;19937;-47
2023/09/21 02:14:08;;;;;;;;;;;18.00;99.90;;;;;;5136440;27;19967;-48
2023/09/21 02:16:33;;;;;;;;;;;17.90;99.90;;;;;;5136540;27;19960;-45
2023/09/21 02:18:59;;;;;;;;;;;17.90;99.90;;;;;;5136330;27;19911;-46
2023/09/21 02:21:24;;;;;;;;;;;17.90;99.90;;;;;;5136335;27;19908;-46
2023/09/21 02:23:50;;;;;;;;;;;17.90;99.90;;;;;;5136282;27;19908;-45
2023/09/21 02:26:15;;;;;;;;;;;17.90;99.90;;;;;;5135808;27;19907;-45
2023/09/21 02:28:41;;;;;;;;;;;17.80;99.90;;;;;;5135740;27;20327;-45
2023/09/21 02:31:07;;;;;;;;;;;17.80;99.90;;;;;;5136294;27;19908;-48
2023/09/21 02:33:34;;;;;;;;;;;17.80;99.90;;;;;;5135778;27;19927;-45
2023/09/21 02:36:01;;;;;;;;;;;17.70;99.90;;;;;;5135335;27;20513;-47
2023/09/21 02:38:26;;;;;;;;;;;17.70;99.90;;;;;;5136080;27;19968;-45
2023/09/21 02:40:52;;;;;;;;;;;17.70;99.90;;;;;;5139364;27;19914;-45
2023/09/21 02:43:18;;;;;;;;;;;17.70;99.90;;;;;;5156761;27;20280;-46
2023/09/21 02:45:47;;;;;;;;;;;17.60;99.90;;;;;;5156757;27;19951;-44
2023/09/21 02:48:12;;;;;;;;;;;17.60;99.90;;;;;;5156449;27;20012;-46
2023/09/21 02:50:38;;;;;;;;;;;17.50;99.90;;;;;;5156163;27;20361;-46
2023/09/21 02:53:08;;;;;;;;;;;17.50;99.90;;;;;;5156764;27;19949;-47
2023/09/21 02:55:34;;;;;;;;;;;17.50;99.90;;;;;;5156354;27;19915;-46
2023/09/21 02:58:05;;;;;;;;;;;17.50;99.90;;;;;;5156458;27;19910;-45
2023/09/21 03:03:00;;;;;;;;;;;17.40;99.90;;;;;;5156340;27;19911;-46
2023/09/21 03:05:27;;;;;;;;;;;17.40;99.90;;;;;;5156204;27;19949;-45
2023/09/21 03:07:56;;;;;;;;;;;17.40;99.90;;;;;;5156253;27;19907;-46
2023/09/21 03:10:23;;;;;;;;;;;17.40;99.90;;;;;;5140162;27;20366;-51
2023/09/21 03:12:49;;;;;;;;;;;17.40;99.90;;;;;;5135417;27;19912;-45
2023/09/21 03:15:16;;;;;;;;;;;17.40;99.90;;;;;;5135075;27;19922;-47
2023/09/21 03:17:42;;;;;;;;;;;17.50;99.90;;;;;;5135240;27;19915;-47
2023/09/21 03:20:11;;;;;;;;;;;17.50;99.90;;;;;;5135252;27;19907;-50
2023/09/21 03:22:37;;;;;;;;;;;17.40;99.90;;;;;;5135125;27;19914;-46
2023/09/21 03:25:04;;;;;;;;;;;17.50;99.90;;;;;;5135216;27;19907;-46
2023/09/21 03:27:30;;;;;;;;;;;17.40;99.90;;;;;;5134885;27;20417;-44
2023/09/21 03:29:55;;;;;;;;;;;17.50;99.90;;;;;;5148654;27;19961;-46
2023/09/21 03:32:21;;;;;;;;;;;17.40;99.90;;;;;;5155392;27;19927;-45
2023/09/21 03:34:46;;;;;;;;;;;17.40;99.90;;;;;;5155803;27;19915;-44
2023/09/21 03:37:13;;;;;;;;;;;17.40;99.90;;;;;;5155127;27;20438;-45
2023/09/21 03:39:38;;;;;;;;;;;17.30;99.90;;;;;;5155478;27;19907;-45
2023/09/21 03:42:04;;;;;;;;;;;17.30;99.90;;;;;;5155408;27;19949;-47
2023/09/21 03:44:30;;;;;;;;;;;17.30;99.90;;;;;;5155401;27;19908;-45
2023/09/21 03:46:55;;;;;;;;;;;17.40;99.90;;;;;;5155539;27;19975;-44
2023/09/21 03:49:21;;;;;;;;;;;17.30;99.90;;;;;;5155450;27;20341;-47
2023/09/21 03:51:47;;;;;;;;;;;17.30;99.90;;;;;;5155414;27;19952;-47
2023/09/21 03:54:14;;;;;;;;;;;17.30;99.90;;;;;;5155069;27;19918;-45
2023/09/21 03:56:39;;;;;;;;;;;17.30;99.90;;;;;;5155202;27;19911;-45
2023/09/21 03:59:06;;;;;;;;;;;17.30;99.90;;;;;;5148816;27;20271;-46
2023/09/21 04:01:34;;;;;;;;;;;17.30;99.90;;;;;;5134477;27;19912;-45
2023/09/21 04:04:05;;;;;;;;;;;17.30;99.90;;;;;;5134368;27;20012;-45
2023/09/21 04:06:31;;;;;;;;;;;17.30;99.90;;;;;;5134332;27;19962;-48
2023/09/21 04:08:57;;;;;;;;;;;17.30;99.90;;;;;;5134198;27;19911;-47
2023/09/21 04:11:22;;;;;;;;;;;17.30;99.90;;;;;;5134027;27;20002;-46
2023/09/21 04:13:48;;;;;;;;;;;17.30;99.90;;;;;;5134014;27;19918;-47
2023/09/21 04:16:13;;;;;;;;;;;17.30;99.90;;;;;;5134091;27;19965;-48
2023/09/21 04:18:39;;;;;;;;;;;17.40;99.90;;;;;;5134030;27;20375;-47
2023/09/21 04:21:08;;;;;;;;;;;17.40;99.90;;;;;;5134173;27;19907;-46
2023/09/21 04:23:34;;;;;;;;;;;17.40;99.90;;;;;;5134102;27;19961;-47
2023/09/21 04:26:00;;;;;;;;;;;17.40;99.90;;;;;;5133878;27;19911;-46
2023/09/21 04:28:25;;;;;;;;;;;17.40;99.90;;;;;;5133803;27;19951;-45
2023/09/21 04:30:51;;;;;;;;;;;17.40;99.90;;;;;;5154475;27;19963;-46
2023/09/21 04:33:16;;;;;;;;;;;17.50;99.90;;;;;;5154363;27;20295;-46
2023/09/21 04:35:42;;;;;;;;;;;17.40;99.90;;;;;;5154680;27;19957;-46
2023/09/21 04:38:08;;;;;;;;;;;17.50;99.90;;;;;;5154468;27;19994;-44
2023/09/21 04:40:34;;;;;;;;;;;17.50;99.90;;;;;;5154507;27;19914;-47
2023/09/21 04:42:59;;;;;;;;;;;17.50;99.90;;;;;;5154481;27;20293;-46
2023/09/21 04:45:27;;;;;;;;;;;17.50;99.90;;;;;;5154450;27;19907;-46
2023/09/21 04:48:00;;;;;;;;;;;17.50;99.90;;;;;;5154460;27;20451;-45
2023/09/21 04:50:25;;;;;;;;;;;17.50;99.90;;;;;;5153816;27;20372;-47
2023/09/21 04:52:51;;;;;;;;;;;17.50;99.90;;;;;;5154512;27;19918;-46
2023/09/21 04:55:17;;;;;;;;;;;17.50;99.90;;;;;;5154184;27;19919;-47
2023/09/21 04:57:43;;;;;;;;;;;17.50;99.90;;;;;;5154433;27;19968;-47
2023/09/21 05:00:13;;;;;;;;;;;17.50;99.90;;;;;;5140321;27;19938;-49
2023/09/21 05:02:39;;;;;;;;;;;17.50;99.90;;;;;;5133636;28;19938;-46
2023/09/21 05:05:05;;;;;;;;;;;17.50;99.90;;;;;;5133619;28;19912;-46
2023/09/21 05:07:30;;;;;;;;;;;17.50;99.90;;;;;;5138387;27;20373;-44
2023/09/21 05:09:56;;;;;;;;;;;17.50;99.90;;;;;;5154164;27;19914;-48
2023/09/21 05:12:21;;;;;;;;;;;17.60;99.90;;;;;;5154128;27;19956;-46
2023/09/21 05:14:47;;;;;;;;;;;17.60;99.90;;;;;;5131931;27;19916;-46
2023/09/21 05:17:13;;;;;;;;;;;17.70;99.90;;;;;;5133351;28;19918;-46
2023/09/21 05:19:39;;;;;;;;;;;17.70;99.90;;;;;;5133470;28;19908;-46
2023/09/21 05:22:04;;;;;;;;;;;17.70;99.90;;;;;;5133395;28;20263;-45
2023/09/21 05:24:30;;;;;;;;;;;17.80;99.90;;;;;;5133286;28;20004;-46
2023/09/21 05:26:56;;;;;;;;;;;17.80;99.90;;;;;;5133412;28;19907;-46
2023/09/21 05:29:22;;;;;;;;;;;17.90;99.90;;;;;;5129976;27;19965;-45
2023/09/21 05:31:48;;;;;;;;;;;17.90;99.90;;;;;;5142870;27;20387;-45
2023/09/21 05:34:14;;;;;;;;;;;17.90;99.90;;;;;;5153862;27;20009;-46
2023/09/21 05:36:40;;;;;;;;;;;17.90;99.90;;;;;;5153802;27;19953;-45
2023/09/21 05:39:05;;;;;;;;;;;18.00;99.90;;;;;;5154001;27;20024;-45
2023/09/21 05:41:31;;;;;;;;;;;18.00;99.90;;;;;;5151247;27;20022;-46
2023/09/21 05:43:57;;;;;;;;;;;18.10;99.90;;;;;;5132410;28;19915;-47
2023/09/21 05:46:23;;;;;;;;;;;18.10;99.90;;;;;;5132327;28;19907;-45
2023/09/21 05:48:48;;;;;;;;;;;18.20;99.90;;;;;;5132717;27;19907;-46
2023/09/21 05:51:14;;;;;;;;;;;18.30;99.90;;;;;;5142109;27;19918;-46
2023/09/21 05:53:39;;;;;;;;;;;18.30;99.90;;;;;;5153774;27;19914;-44
2023/09/21 05:56:05;;;;;;;;;;;18.40;99.90;;;;;;5153767;27;20006;-46
2023/09/21 05:58:31;;;;;;;;;;;18.40;99.90;;;;;;5153709;27;19907;-44
2023/09/21 06:00:59;;;;;;;;;;;18.50;99.90;;;;;;5146123;27;19920;-46
2023/09/21 06:03:27;;;;;;;;;;;18.50;99.90;;;;;;5138137;27;20065;-45
2023/09/21 06:05:53;;;;;;;;;;;18.60;99.90;;;;;;5129951;27;19908;-48
2023/09/21 06:08:21;;;;;;;;;;;18.60;99.90;;;;;;5116107;27;19908;-46
2023/09/21 06:10:47;;;;;;;;;;;18.60;99.90;;;;;;5128377;27;19911;-46
2023/09/21 06:13:12;;;;;;;;;;;18.70;99.90;;;;;;5136571;27;20280;-46
2023/09/21 06:15:45;;;;;;;;;;;18.70;99.90;;;;;;5139140;27;19972;-46
2023/09/21 06:18:10;;;;;;;;;;;18.70;99.90;;;;;;5137268;27;19998;-45
2023/09/21 06:20:35;;;;;;;;;;;18.70;99.90;;;;;;5143112;27;20010;-47
2023/09/21 06:23:02;;;;;;;;;;;18.70;99.90;;;;;;5143950;27;19915;-47
2023/09/21 06:25:27;;;;;;;;;;;18.80;99.90;;;;;;5136980;27;19962;-48
2023/09/21 06:27:53;;;;;;;;;;;18.80;99.90;;;;;;5143391;27;20089;-46
2023/09/21 06:30:20;;;;;;;;;;;18.80;99.90;;;;;;5143645;27;19937;-46
2023/09/21 06:32:46;;;;;;;;;;;18.90;99.90;;;;;;5146469;27;19942;-45
2023/09/21 06:35:13;;;;;;;;;;;18.90;99.90;;;;;;5144337;27;20362;-47
2023/09/21 06:37:39;;;;;;;;;;;19.00;99.90;;;;;;5148481;27;19942;-47
2023/09/21 06:40:07;;;;;;;;;;;19.00;99.90;;;;;;5156864;27;19911;-46
2023/09/21 06:42:33;;;;;;;;;;;19.10;99.90;;;;;;5156799;27;19907;-47
2023/09/21 06:44:58;;;;;;;;;;;19.10;99.90;;;;;;5156755;27;19999;-45
2023/09/21 06:47:28;;;;;;;;;;;19.10;99.90;;;;;;5156561;27;19946;-47
2023/09/21 06:49:54;;;;;;;;;;;19.10;99.90;;;;;;5142822;27;20700;-44
2023/09/21 06:52:21;;;;;;;;;;;19.10;99.90;;;;;;5142070;27;19916;-47
2023/09/21 06:54:47;;;;;;;;;;;19.10;99.90;;;;;;5146002;27;19915;-44
2023/09/21 06:57:13;;;;;;;;;;;19.10;99.90;;;;;;5141291;27;19916;-45
2023/09/21 06:59:39;;;;;;;;;;;19.10;99.90;;;;;;5156413;27;19913;-45
2023/09/21 07:02:04;;;;;;;;;;;19.10;99.90;;;;;;5150149;27;20370;-45
2023/09/21 07:04:33;;;;;;;;;;;19.20;99.90;;;;;;5142508;27;19943;-46
2023/09/21 07:07:06;;;;;;;;;;;19.20;99.90;;;;;;5151035;27;20376;-46
2023/09/21 07:09:32;;;;;;;;;;;19.20;99.90;;;;;;5154194;27;20373;-46
2023/09/21 07:11:58;;;;;;;;;;;19.30;99.90;;;;;;5131806;27;19911;-47
2023/09/21 07:14:23;;;;;;;;;;;19.30;99.90;;;;;;5116848;27;19920;-46
2023/09/21 07:16:49;;;;;;;;;;;19.30;99.90;;;;;;5116123;27;20351;-45
2023/09/21 07:19:14;;;;;;;;;;;19.30;99.90;;;;;;5135298;27;19907;-45
2023/09/21 07:21:40;;;;;;;;;;;19.40;99.90;;;;;;5135299;27;19911;-45
2023/09/21 07:24:07;;;;;;;;;;;19.40;99.90;;;;;;5135135;27;19914;-44
2023/09/21 07:26:33;;;;;;;;;;;19.40;99.90;;;;;;5127373;27;19908;-46
2023/09/21 07:29:02;;;;;;;;;;;19.40;99.90;;;;;;5114590;28;19908;-46
2023/09/21 07:31:29;;;;;;;;;;;19.50;99.90;;;;;;5114368;28;19969;-45
2023/09/21 07:33:57;;;;;;;;;;;19.50;99.90;;;;;;5114179;28;19920;-47
2023/09/21 07:36:23;;;;;;;;;;;19.60;99.90;;;;;;5114287;28;19995;-46
2023/09/21 07:38:48;;;;;;;;;;;19.60;99.90;;;;;;5114375;28;20026;-47
2023/09/21 07:41:13;;;;;;;;;;;19.60;99.90;;;;;;5114259;27;19908;-46
2023/09/21 07:43:40;;;;;;;;;;;19.70;99.90;;;;;;5151521;27;19923;-45
2023/09/21 07:46:05;;;;;;;;;;;19.80;99.90;;;;;;5134602;27;20029;-46
2023/09/21 07:48:31;;;;;;;;;;;19.90;99.90;;;;;;5134698;27;20378;-45
2023/09/21 07:50:56;;;;;;;;;;;19.90;99.90;;;;;;5134539;27;19911;-45
2023/09/21 07:53:22;;;;;;;;;;;19.90;99.90;;;;;;5134621;27;19918;-47
2023/09/21 07:55:57;;;;;;;;;;;20.00;99.90;;;;;;5134453;27;19919;-47
2023/09/21 07:58:22;;;;;;;;;;;20.10;99.90;;;;;;5134446;27;20338;-46
2023/09/21 08:00:48;;;;;;;;;;;20.10;99.90;;;;;;5134475;27;19995;-45
2023/09/21 08:03:13;;;;;;;;;;;20.10;99.90;;;;;;5134346;27;19914;-44
2023/09/21 08:05:39;;;;;;;;;;;20.10;99.90;;;;;;5134523;27;19907;-45
2023/09/21 08:08:05;;;;;;;;;;;20.10;99.90;;;;;;5134438;27;19939;-46
2023/09/21 08:10:32;;;;;;;;;;;20.10;99.90;;;;;;5134304;27;19996;-46
2023/09/21 08:12:58;;;;;;;;;;;20.10;99.90;;;;;;5148265;27;19911;-45
2023/09/21 08:15:23;;;;;;;;;;;20.00;99.90;;;;;;5154896;27;20026;-47
2023/09/21 08:17:48;;;;;;;;;;;20.00;99.90;;;;;;5154905;27;20006;-45
2023/09/21 08:20:14;;;;;;;;;;;20.00;99.90;;;;;;5150255;27;19948;-44
2023/09/21 08:22:41;;;;;;;;;;;19.90;99.90;;;;;;5134171;27;19949;-46
2023/09/21 08:25:08;;;;;;;;;;;19.90;99.90;;;;;;5133388;27;19908;-44
2023/09/21 08:27:34;;;;;;;;;;;19.90;99.90;;;;;;5133917;27;19907;-46
2023/09/21 08:30:03;;;;;;;;;;;19.80;99.90;;;;;;5133983;27;19958;-44
2023/09/21 08:32:29;;;;;;;;;;;19.80;99.90;;;;;;5133638;27;19920;-46
2023/09/21 08:34:54;;;;;;;;;;;19.70;99.90;;;;;;5133965;27;19916;-45
2023/09/21 08:37:20;;;;;;;;;;;19.70;99.90;;;;;;5133936;27;20384;-46
2023/09/21 08:39:45;;;;;;;;;;;19.70;99.90;;;;;;5133946;27;19912;-46
2023/09/21 08:42:11;;;;;;;;;;;19.70;99.90;;;;;;5133757;27;19947;-45
2023/09/21 08:44:40;;;;;;;;;;;19.60;99.90;;;;;;5133903;27;19912;-44
2023/09/21 08:47:09;;;;;;;;;;;19.70;99.90;;;;;;5134083;27;19913;-45
2023/09/21 08:49:35;;;;;;;;;;;19.60;99.90;;;;;;5133816;28;20018;-45
2023/09/21 08:52:02;;;;;;;;;;;19.60;99.90;;;;;;5152648;27;19946;-44
2023/09/21 08:54:28;;;;;;;;;;;19.70;99.90;;;;;;5154267;27;19915;-45
2023/09/21 08:56:55;;;;;;;;;;;19.70;99.90;;;;;;5154367;27;20002;-44
2023/09/21 08:59:21;;;;;;;;;;;19.60;99.90;;;;;;5149044;27;19911;-45
2023/09/21 09:01:47;;;;;;;;;;;19.50;99.90;;;;;;5154109;27;20262;-45
2023/09/21 09:04:14;;;;;;;;;;;19.50;99.90;;;;;;5154309;27;19911;-45
2023/09/21 09:06:40;;;;;;;;;;;19.50;99.90;;;;;;5154421;27;19914;-46
2023/09/21 09:09:06;;;;;;;;;;;19.40;99.90;;;;;;5154314;27;19908;-46
2023/09/21 09:11:35;;;;;;;;;;;19.40;99.90;;;;;;5154168;27;20408;-46
2023/09/21 09:14:01;;;;;;;;;;;19.40;99.90;;;;;;5154335;27;20084;-45
2023/09/21 09:16:30;;;;;;;;;;;19.40;99.90;;;;;;5154178;27;19911;-46
2023/09/21 09:18:57;;;;;;;;;;;19.30;99.90;;;;;;5154227;27;19913;-47
2023/09/21 09:21:23;;;;;;;;;;;19.30;99.90;;;;;;5140160;27;19919;-46
2023/09/21 09:23:48;;;;;;;;;;;19.20;99.90;;;;;;5133539;28;20444;-44
2023/09/21 09:26:15;;;;;;;;;;;19.20;99.90;;;;;;5133377;28;20353;-45
2023/09/21 09:28:41;;;;;;;;;;;19.20;99.90;;;;;;5133413;27;19962;-45
2023/09/21 09:31:10;;;;;;;;;;;19.10;99.90;;;;;;5133443;28;20354;-44
2023/09/21 09:33:36;;;;;;;;;;;19.10;99.90;;;;;;5133241;28;19927;-44
2023/09/21 09:36:02;;;;;;;;;;;19.10;99.90;;;;;;5133851;27;20286;-45
2023/09/21 09:38:28;;;;;;;;;;;19.00;99.90;;;;;;5137267;27;19907;-46
2023/09/21 09:40:53;;;;;;;;;;;19.00;99.90;;;;;;5137255;27;19914;-47
2023/09/21 09:43:20;;;;;;;;;;;18.90;99.90;;;;;;5137111;27;19907;-43
2023/09/21 09:45:47;;;;;;;;;;;18.80;99.90;;;;;;5137150;27;19907;-44
2023/09/21 09:48:15;;;;;;;;;;;18.80;99.90;;;;;;5137029;27;19951;-45
2023/09/21 09:50:44;;;;;;;;;;;18.70;99.90;;;;;;5144092;27;19955;-44
2023/09/21 09:53:17;;;;;;;;;;;18.70;99.90;;;;;;5157092;27;19907;-44
2023/09/21 09:55:44;;;;;;;;;;;18.60;99.90;;;;;;5157759;27;20349;-47
2023/09/21 09:58:10;;;;;;;;;;;18.60;99.90;;;;;;5157567;27;19914;-46
2023/09/21 10:00:35;;;;;;;;;;;18.60;99.90;;;;;;5157628;27;20285;-45
2023/09/21 10:03:04;;;;;;;;;;;18.50;99.90;;;;;;5157512;27;20013;-46
2023/09/21 10:05:30;;;;;;;;;;;18.40;99.90;;;;;;5157428;27;19915;-45
2023/09/21 10:07:59;;;;;;;;;;;18.40;99.90;;;;;;5157516;27;19907;-44
2023/09/21 10:10:27;;;;;;;;;;;18.40;99.90;;;;;;5157321;27;19914;-44
2023/09/21 10:12:53;;;;;;;;;;;18.40;99.90;;;;;;5157330;27;19935;-45
2023/09/21 10:15:22;;;;;;;;;;;18.30;99.90;;;;;;5157180;27;20002;-44
2023/09/21 10:17:50;;;;;;;;;;;18.30;99.90;;;;;;5157532;27;19907;-44
2023/09/21 10:20:25;;;;;;;;;;;18.30;99.90;;;;;;5156622;27;19918;-45
2023/09/21 10:22:54;;;;;;;;;;;18.20;99.90;;;;;;5157099;27;19907;-43
2023/09/21 10:25:38;;;;;;;;;;;18.20;99.90;;;;;;5130020;27;20002;-46
2023/09/21 10:28:26;;;;;;;;;;;18.20;99.90;;;;;;5129375;27;19994;-47
2023/09/21 10:30:52;;;;;;;;;;;18.10;99.90;;;;;;5134792;27;19923;-45
2023/09/21 10:33:18;;;;;;;;;;;18.10;99.90;;;;;;5131637;27;19923;-44
2023/09/21 10:35:44;;;;;;;;;;;18.00;99.90;;;;;;5148823;27;20059;-44
2023/09/21 10:38:13;;;;;;;;;;;18.00;99.90;;;;;;5132862;27;19911;-44
2023/09/21 10:40:40;;;;;;;;;;;17.90;99.90;;;;;;5135013;27;19998;-45
2023/09/21 10:43:24;;;;;;;;;;;17.80;99.90;;;;;;5134797;27;20482;-44
2023/09/21 10:45:53;;;;;;;;;;;17.70;99.90;;;;;;5123933;27;19912;-45
2023/09/21 10:48:19;;;;;;;;;;;17.70;99.90;;;;;;5130166;27;19915;-44
2023/09/21 10:50:45;;;;;;;;;;;17.50;99.90;;;;;;5133974;27;20031;-44
2023/09/21 10:53:12;;;;;;;;;;;17.40;99.90;;;;;;5143155;27;19911;-44
2023/09/21 10:55:40;;;;;;;;;;;17.40;99.90;;;;;;5156266;27;20386;-46
2023/09/21 10:58:05;;;;;;;;;;;17.30;99.90;;;;;;5150599;27;19919;-44
2023/09/21 11:00:31;;;;;;;;;;;17.30;99.90;;;;;;5142291;27;19907;-45
2023/09/21 11:02:57;;;;;;;;;;;17.20;99.90;;;;;;5147623;27;20037;-45
2023/09/21 11:05:23;;;;;;;;;;;17.20;99.90;;;;;;5140049;27;19915;-45
2023/09/21 11:07:51;;;;;;;;;;;17.10;99.90;;;;;;5143571;27;19911;-46
2023/09/21 11:10:16;;;;;;;;;;;17.10;99.90;;;;;;5144146;27;19908;-45
2023/09/21 11:12:42;;;;;;;;;;;17.20;99.90;;;;;;5142245;27;19964;-45
2023/09/21 11:15:09;;;;;;;;;;;17.20;99.90;;;;;;5154159;27;19915;-45
2023/09/21 11:17:34;;;;;;;;;;;17.20;99.90;;;;;;5142137;27;19911;-46
2023/09/21 11:20:02;;;;;;;;;;;17.20;99.90;;;;;;5154180;27;20310;-44
2023/09/21 11:22:28;;;;;;;;;;;17.20;99.90;;;;;;5134794;27;20282;-46
2023/09/21 11:24:55;;;;;;;;;;;17.10;99.90;;;;;;5154325;27;19911;-46
2023/09/21 11:27:24;;;;;;;;;;;17.20;99.90;;;;;;5132726;27;20422;-44
2023/09/21 11:29:51;;;;;;;;;;;17.20;99.90;;;;;;5135009;27;19907;-47
2023/09/21 11:32:17;;;;;;;;;;;17.10;99.90;;;;;;5133605;27;20378;-45
2023/09/21 11:34:43;;;;;;;;;;;17.10;99.90;;;;;;5116268;27;19916;-45
2023/09/21 11:37:10;;;;;;;;;;;17.10;99.90;;;;;;5114258;28;19915;-45
2023/09/21 11:39:36;;;;;;;;;;;17.20;99.90;;;;;;5114394;28;20048;-46
2023/09/21 11:42:01;;;;;;;;;;;17.20;99.90;;;;;;5114508;28;19912;-44
2023/09/21 11:44:29;;;;;;;;;;;17.30;99.90;;;;;;5121434;27;20281;-45
2023/09/21 11:46:57;;;;;;;;;;;17.30;99.90;;;;;;5147650;27;19911;-46
2023/09/21 11:49:38;;;;;;;;;;;17.30;99.90;;;;;;5144406;27;19911;-44
2023/09/21 11:52:04;;;;;;;;;;;17.40;99.90;;;;;;5146540;27;19920;-44
2023/09/21 11:54:35;;;;;;;;;;;17.40;99.90;;;;;;5135036;27;19929;-43
2023/09/21 11:57:03;;;;;;;;;;;17.50;99.90;;;;;;5137303;27;19912;-45
2023/09/21 11:59:31;;;;;;;;;;;17.70;99.90;;;;;;5133604;27;20330;-45
2023/09/21 12:01:59;;;;;;;;;;;17.90;99.90;;;;;;5133328;27;20009;-44
2023/09/21 12:04:28;;;;;;;;;;;18.00;99.90;;;;;;5134357;27;19943;-45
2023/09/21 12:06:55;;;;;;;;;;;18.10;99.90;;;;;;5134397;27;19908;-45
2023/09/21 12:09:21;;;;;;;;;;;18.20;99.90;;;;;;5134398;27;19908;-45
2023/09/21 12:11:48;;;;;;;;;;;18.20;99.90;;;;;;5134449;27;19907;-45
2023/09/21 12:14:14;;;;;;;;;;;18.20;99.90;;;;;;5134159;27;19977;-45
2023/09/21 12:16:40;;;;;;;;;;;18.20;99.90;;;;;;5134127;27;20358;-45
2023/09/21 12:19:08;;;;;;;;;;;18.10;99.90;;;;;;5134292;27;20161;-45
2023/09/21 12:21:34;;;;;;;;;;;18.10;99.90;;;;;;5134116;27;19907;-48
2023/09/21 12:24:00;;;;;;;;;;;18.00;99.90;;;;;;5134086;27;19950;-44
2023/09/21 12:26:25;;;;;;;;;;;17.80;99.90;;;;;;5134066;27;19912;-43
2023/09/21 12:28:53;;;;;;;;;;;17.70;99.90;;;;;;5135030;27;19930;-44
2023/09/21 12:31:19;;;;;;;;;;;17.60;99.90;;;;;;5133982;27;19908;-46
2023/09/21 12:33:45;;;;;;;;;;;17.50;99.90;;;;;;5133665;27;19927;-45
2023/09/21 12:36:14;;;;;;;;;;;17.50;99.90;;;;;;5133756;27;20437;-44
2023/09/21 12:38:40;;;;;;;;;;;17.50;99.90;;;;;;5133893;27;20346;-45
2023/09/21 12:41:09;;;;;;;;;;;17.50;99.90;;;;;;5133944;27;19911;-47
2023/09/21 12:43:37;;;;;;;;;;;17.50;99.90;;;;;;5133863;27;20003;-44
2023/09/21 12:46:04;;;;;;;;;;;17.40;99.90;;;;;;5133794;27;19912;-44
2023/09/21 12:48:29;;;;;;;;;;;17.40;99.90;;;;;;5128671;27;20298;-46
2023/09/21 12:50:55;;;;;;;;;;;17.30;99.90;;;;;;5129849;27;19912;-45
2023/09/21 12:53:20;;;;;;;;;;;17.30;99.90;;;;;;5135833;27;20631;-45
2023/09/21 12:55:46;;;;;;;;;;;17.20;99.90;;;;;;5136890;27;19919;-43
2023/09/21 12:58:11;;;;;;;;;;;17.20;99.90;;;;;;5134266;27;19926;-45
2023/09/21 13:00:38;;;;;;;;;;;17.20;99.90;;;;;;5131856;27;20006;-44
2023/09/21 13:03:04;;;;;;;;;;;17.20;99.90;;;;;;5119980;28;19946;-45
2023/09/21 13:05:30;;;;;;;;;;;17.30;99.90;;;;;;5117044;28;20255;-46
2023/09/21 13:07:56;;;;;;;;;;;17.50;99.90;;;;;;5128472;28;19915;-44
2023/09/21 13:10:21;;;;;;;;;;;17.60;99.90;;;;;;5122661;27;20115;-44
2023/09/21 13:12:47;;;;;;;;;;;17.70;99.90;;;;;;5134225;27;19933;-45
2023/09/21 13:15:14;;;;;;;;;;;17.70;99.90;;;;;;5134727;27;19938;-45
2023/09/21 13:17:40;;;;;;;;;;;17.80;99.90;;;;;;5124270;27;20358;-47
2023/09/21 13:20:05;;;;;;;;;;;17.90;99.90;;;;;;5129673;27;19908;-45
2023/09/21 13:22:31;;;;;;;;;;;18.00;99.90;;;;;;5137035;27;19915;-45
2023/09/21 13:24:57;;;;;;;;;;;18.10;99.90;;;;;;5134701;27;19911;-43
2023/09/21 13:27:23;;;;;;;;;;;18.10;99.90;;;;;;5127059;27;19915;-45
2023/09/21 13:29:49;;;;;;;;;;;18.00;99.90;;;;;;5129450;27;19911;-46
2023/09/21 13:32:15;;;;;;;;;;;18.00;99.90;;;;;;5116249;28;19995;-44
2023/09/21 13:34:40;;;;;;;;;;;18.00;99.90;;;;;;5136067;27;19919;-45
2023/09/21 13:37:06;;;;;;;;;;;18.00;99.90;;;;;;5133987;27;20008;-46
2023/09/21 13:39:34;;;;;;;;;;;17.90;99.90;;;;;;5134208;27;20357;-45
2023/09/21 13:42:00;;;;;;;;;;;17.80;99.90;;;;;;5139065;27;19912;-44
2023/09/21 13:44:28;;;;;;;;;;;17.70;99.90;;;;;;5146570;27;19926;-45
2023/09/21 13:46:56;;;;;;;;;;;17.70;99.90;;;;;;5155076;27;19915;-44
2023/09/21 13:49:21;;;;;;;;;;;17.70;99.90;;;;;;5141020;27;20400;-45
2023/09/21 13:51:47;;;;;;;;;;;17.80;99.90;;;;;;5135864;27;19944;-44
2023/09/21 13:54:13;;;;;;;;;;;17.90;99.90;;;;;;5136301;27;19912;-44
2023/09/21 13:56:39;;;;;;;;;;;18.00;99.90;;;;;;5136153;27;19911;-45
2023/09/21 13:59:05;;;;;;;;;;;18.10;99.90;;;;;;5136481;27;19918;-45
2023/09/21 14:01:30;;;;;;;;;;;18.10;99.90;;;;;;5136437;27;19918;-45
2023/09/21 14:03:57;;;;;;;;;;;18.20;99.90;;;;;;5136382;27;19980;-45
2023/09/21 14:06:23;;;;;;;;;;;18.10;99.90;;;;;;5136364;27;19911;-46
2023/09/21 14:08:49;;;;;;;;;;;18.10;99.90;;;;;;5135730;27;19918;-45
2023/09/21 14:11:14;;;;;;;;;;;18.10;99.90;;;;;;5136755;27;19911;-45
2023/09/21 14:13:40;;;;;;;;;;;18.10;99.90;;;;;;5136282;27;20440;-45
2023/09/21 14:16:06;;;;;;;;;;;18.10;99.90;;;;;;5136460;27;19919;-44
2023/09/21 14:18:32;;;;;;;;;;;18.00;99.90;;;;;;5135880;27;19908;-46